sensor_id;sensor_type;location;lat;lon;timestamp;pressure;altitude;pressure_sealevel;temperature;humidity
77631;BME280;66798;47.370;8.552;2023-06-19T04:52:50;96744.97;;;21.14;76.50
77631;BME280;66798;47.370;8.552;2023-06-19T04:55:16;96754.91;;;21.13;76.47
77631;BME280;66798;47.370;8.552;2023-06-19T04:57:41;96743.03;;;21.02;74.46
77631;BME280;66798;47.370;8.552;2023-06-19T05:00:07;96753.63;;;20.98;76.63
77631;BME280;66798;47.370;8.552;2023-06-19T05:02:35;96747.84;;;20.96;77.89
77631;BME280;66798;47.370;8.552;2023-06-19T05:05:01;96747.72;;;20.93;77.75
77631;BME280;66798;47.370;8.552;2023-06-19T05:07:32;96739.81;;;20.96;75.89
77631;BME280;66798;47.370;8.552;2023-06-19T05:09:58;96740.59;;;20.97;75.48
77631;BME280;66798;47.370;8.552;2023-06-19T05:12:24;96743.63;;;20.95;76.22
77631;BME280;66798;47.370;8.552;2023-06-19T05:14:49;96732.84;;;20.83;74.72
77631;BME280;66798;47.370;8.552;2023-06-19T05:17:15;96735.09;;;20.81;76.75
77631;BME280;66798;47.370;8.552;2023-06-19T05:19:40;96738.88;;;20.80;77.46
77631;BME280;66798;47.370;8.552;2023-06-19T05:22:06;96735.38;;;20.67;76.64
77631;BME280;66798;47.370;8.552;2023-06-19T05:24:32;96720.44;;;20.66;76.98
77631;BME280;66798;47.370;8.552;2023-06-19T05:26:58;96717.22;;;20.52;76.71
77631;BME280;66798;47.370;8.552;2023-06-19T05:29:23;96708.78;;;20.50;77.60
77631;BME280;66798;47.370;8.552;2023-06-19T05:31:49;96712.56;;;20.49;76.70
77631;BME280;66798;47.370;8.552;2023-06-19T05:34:14;96704.84;;;20.47;76.45
77631;BME280;66798;47.370;8.552;2023-06-19T05:36:39;96711.47;;;20.50;76.50
77631;BME280;66798;47.370;8.552;2023-06-19T05:39:05;96711.31;;;20.46;75.84
77631;BME280;66798;47.370;8.552;2023-06-19T05:41:30;96707.22;;;20.49;76.20
77631;BME280;66798;47.370;8.552;2023-06-19T05:43:56;96702.84;;;20.44;75.68
77631;BME280;66798;47.370;8.552;2023-06-19T05:46:21;96687.28;;;20.46;75.73
77631;BME280;66798;47.370;8.552;2023-06-19T05:48:47;96692.28;;;20.48;76.26
77631;BME280;66798;47.370;8.552;2023-06-19T05:51:13;96694.16;;;20.47;76.12
77631;BME280;66798;47.370;8.552;2023-06-19T05:53:39;96692.41;;;20.51;76.89
77631;BME280;66798;47.370;8.552;2023-06-19T05:56:04;96691.31;;;20.52;77.27
77631;BME280;66798;47.370;8.552;2023-06-19T05:58:31;96688.56;;;20.61;76.08
77631;BME280;66798;47.370;8.552;2023-06-19T06:00:56;96693.03;;;20.57;75.60
77631;BME280;66798;47.370;8.552;2023-06-19T06:03:26;96689.69;;;20.60;75.54
77631;BME280;66798;47.370;8.552;2023-06-19T06:05:53;96692.47;;;20.64;75.58
77631;BME280;66798;47.370;8.552;2023-06-19T06:08:18;96678.78;;;20.65;75.78
77631;BME280;66798;47.370;8.552;2023-06-19T06:10:44;96679.56;;;20.66;76.09
77631;BME280;66798;47.370;8.552;2023-06-19T06:13:09;96674.69;;;20.68;75.53
77631;BME280;66798;47.370;8.552;2023-06-19T06:15:35;96675.25;;;20.73;75.36
77631;BME280;66798;47.370;8.552;2023-06-19T06:18:00;96674.03;;;20.83;75.79
77631;BME280;66798;47.370;8.552;2023-06-19T06:20:26;96677.28;;;20.89;75.65
77631;BME280;66798;47.370;8.552;2023-06-19T06:22:53;96669.81;;;20.94;75.64
77631;BME280;66798;47.370;8.552;2023-06-19T06:25:18;96664.94;;;20.96;75.32
77631;BME280;66798;47.370;8.552;2023-06-19T06:27:44;96666.06;;;21.08;75.63
77631;BME280;66798;47.370;8.552;2023-06-19T06:30:10;96667.63;;;21.21;76.67
77631;BME280;66798;47.370;8.552;2023-06-19T06:32:37;96672.09;;;21.29;74.62
77631;BME280;66798;47.370;8.552;2023-06-19T06:35:02;96667.44;;;21.38;75.02
77631;BME280;66798;47.370;8.552;2023-06-19T06:37:28;96675.34;;;21.59;75.09
77631;BME280;66798;47.370;8.552;2023-06-19T06:39:53;96678.34;;;21.70;75.42
77631;BME280;66798;47.370;8.552;2023-06-19T06:42:19;96679.78;;;21.80;73.95
77631;BME280;66798;47.370;8.552;2023-06-19T06:44:45;96679.75;;;21.92;73.78
77631;BME280;66798;47.370;8.552;2023-06-19T06:47:10;96668.94;;;22.01;72.95
77631;BME280;66798;47.370;8.552;2023-06-19T06:49:36;96667.75;;;22.14;73.96
77631;BME280;66798;47.370;8.552;2023-06-19T06:52:06;96673.31;;;22.34;73.40
77631;BME280;66798;47.370;8.552;2023-06-19T06:54:31;96674.19;;;22.66;73.32
77631;BME280;66798;47.370;8.552;2023-06-19T06:56:58;96668.72;;;23.06;72.81
77631;BME280;66798;47.370;8.552;2023-06-19T06:59:25;96663.91;;;23.47;71.43
77631;BME280;66798;47.370;8.552;2023-06-19T07:01:53;96659.84;;;23.53;70.36
77631;BME280;66798;47.370;8.552;2023-06-19T07:04:18;96668.13;;;23.64;68.73
77631;BME280;66798;47.370;8.552;2023-06-19T07:06:44;96668.28;;;23.71;69.11
77631;BME280;66798;47.370;8.552;2023-06-19T07:09:09;96667.38;;;23.80;69.03
77631;BME280;66798;47.370;8.552;2023-06-19T07:11:35;96663.22;;;24.02;68.67
77631;BME280;66798;47.370;8.552;2023-06-19T07:14:02;96656.50;;;24.11;67.62
77631;BME280;66798;47.370;8.552;2023-06-19T07:16:27;96658.69;;;24.45;68.29
77631;BME280;66798;47.370;8.552;2023-06-19T07:18:53;96656.00;;;24.64;66.66
77631;BME280;66798;47.370;8.552;2023-06-19T07:21:19;96652.50;;;25.06;66.79
77631;BME280;66798;47.370;8.552;2023-06-19T07:23:45;96648.63;;;25.53;66.12
77631;BME280;66798;47.370;8.552;2023-06-19T07:26:12;96640.44;;;25.73;65.14
77631;BME280;66798;47.370;8.552;2023-06-19T07:28:38;96640.69;;;26.21;63.20
77631;BME280;66798;47.370;8.552;2023-06-19T07:31:03;96639.31;;;26.34;59.38
77631;BME280;66798;47.370;8.552;2023-06-19T07:33:29;96633.44;;;26.28;60.77
77631;BME280;66798;47.370;8.552;2023-06-19T07:35:55;96623.44;;;26.29;60.36
77631;BME280;66798;47.370;8.552;2023-06-19T07:38:21;96621.09;;;26.58;61.89
77631;BME280;66798;47.370;8.552;2023-06-19T07:40:46;96626.41;;;26.92;60.30
77631;BME280;66798;47.370;8.552;2023-06-19T07:43:12;96617.56;;;27.50;60.04
77631;BME280;66798;47.370;8.552;2023-06-19T07:45:37;96624.00;;;27.93;56.56
77631;BME280;66798;47.370;8.552;2023-06-19T07:48:02;96620.56;;;28.00;55.90
77631;BME280;66798;47.370;8.552;2023-06-19T07:50:28;96616.63;;;27.83;56.33
77631;BME280;66798;47.370;8.552;2023-06-19T07:52:53;96611.94;;;27.77;55.91
77631;BME280;66798;47.370;8.552;2023-06-19T07:55:19;96608.16;;;27.26;54.02
77631;BME280;66798;47.370;8.552;2023-06-19T07:57:44;96613.56;;;27.22;56.41
77631;BME280;66798;47.370;8.552;2023-06-19T08:00:10;96616.63;;;27.21;57.39
77631;BME280;66798;47.370;8.552;2023-06-19T08:02:39;96600.97;;;27.44;56.02
77631;BME280;66798;47.370;8.552;2023-06-19T08:05:06;96606.97;;;27.86;56.06
77631;BME280;66798;47.370;8.552;2023-06-19T08:07:31;96606.28;;;27.96;55.27
77631;BME280;66798;47.370;8.552;2023-06-19T08:09:57;96599.31;;;27.99;54.78
77631;BME280;66798;47.370;8.552;2023-06-19T08:12:22;96604.00;;;28.12;55.09
77631;BME280;66798;47.370;8.552;2023-06-19T08:14:48;96609.09;;;28.35;54.79
77631;BME280;66798;47.370;8.552;2023-06-19T08:17:13;96609.91;;;28.50;53.60
77631;BME280;66798;47.370;8.552;2023-06-19T08:19:39;96604.94;;;28.63;50.98
77631;BME280;66798;47.370;8.552;2023-06-19T08:22:05;96608.41;;;28.71;52.32
77631;BME280;66798;47.370;8.552;2023-06-19T08:24:31;96602.19;;;28.52;52.34
77631;BME280;66798;47.370;8.552;2023-06-19T08:26:56;96603.03;;;27.72;54.16
77631;BME280;66798;47.370;8.552;2023-06-19T08:29:22;96609.94;;;28.54;54.33
77631;BME280;66798;47.370;8.552;2023-06-19T08:31:48;96604.16;;;28.88;52.90
77631;BME280;66798;47.370;8.552;2023-06-19T08:34:13;96604.97;;;29.10;50.58
77631;BME280;66798;47.370;8.552;2023-06-19T08:36:39;96614.59;;;29.43;51.55
77631;BME280;66798;47.370;8.552;2023-06-19T08:39:04;96608.44;;;29.07;51.04
77631;BME280;66798;47.370;8.552;2023-06-19T08:41:30;96614.59;;;29.47;46.80
77631;BME280;66798;47.370;8.552;2023-06-19T08:43:55;96613.06;;;28.99;49.28
77631;BME280;66798;47.370;8.552;2023-06-19T08:46:21;96605.69;;;29.03;49.22
77631;BME280;66798;47.370;8.552;2023-06-19T08:48:46;96604.94;;;29.28;49.00
77631;BME280;66798;47.370;8.552;2023-06-19T08:51:12;96611.06;;;29.64;48.19
77631;BME280;66798;47.370;8.552;2023-06-19T08:53:48;96603.31;;;29.80;45.65
77631;BME280;66798;47.370;8.552;2023-06-19T08:56:17;96601.97;;;30.17;47.34
77631;BME280;66798;47.370;8.552;2023-06-19T08:58:42;96600.50;;;29.98;44.60
77631;BME280;66798;47.370;8.552;2023-06-19T09:01:08;96598.78;;;30.40;47.05
77631;BME280;66798;47.370;8.552;2023-06-19T09:03:33;96597.69;;;30.23;43.93
77631;BME280;66798;47.370;8.552;2023-06-19T09:06:03;96598.50;;;30.87;45.41
77631;BME280;66798;47.370;8.552;2023-06-19T09:08:29;96606.06;;;31.14;44.43
77631;BME280;66798;47.370;8.552;2023-06-19T09:11:04;96604.28;;;31.34;44.01
77631;BME280;66798;47.370;8.552;2023-06-19T09:13:31;96594.44;;;31.51;44.89
77631;BME280;66798;47.370;8.552;2023-06-19T09:16:02;96594.34;;;31.62;43.20
77631;BME280;66798;47.370;8.552;2023-06-19T09:18:52;96596.16;;;31.72;45.03
77631;BME280;66798;47.370;8.552;2023-06-19T09:21:19;96593.19;;;31.93;42.56
77631;BME280;66798;47.370;8.552;2023-06-19T18:39:33;96347.38;;;26.55;47.56
77631;BME280;66798;47.370;8.552;2023-06-19T18:42:00;96338.41;;;26.40;47.89
77631;BME280;66798;47.370;8.552;2023-06-19T18:44:25;96339.94;;;26.38;47.48
77631;BME280;66798;47.370;8.552;2023-06-19T18:46:51;96334.53;;;26.34;47.84
77631;BME280;66798;47.370;8.552;2023-06-19T18:49:16;96334.94;;;26.36;47.89
77631;BME280;66798;47.370;8.552;2023-06-19T18:51:42;96342.28;;;26.39;48.34
77631;BME280;66798;47.370;8.552;2023-06-19T18:54:07;96339.13;;;26.34;47.38
77631;BME280;66798;47.370;8.552;2023-06-19T18:56:32;96349.50;;;26.28;46.88
77631;BME280;66798;47.370;8.552;2023-06-19T18:58:58;96340.56;;;26.13;47.09
77631;BME280;66798;47.370;8.552;2023-06-19T19:01:23;96346.72;;;26.14;47.35
77631;BME280;66798;47.370;8.552;2023-06-19T19:03:49;96340.16;;;26.11;48.47
77631;BME280;66798;47.370;8.552;2023-06-19T19:06:14;96350.91;;;26.08;47.67
77631;BME280;66798;47.370;8.552;2023-06-19T19:08:40;96345.06;;;25.98;48.23
77631;BME280;66798;47.370;8.552;2023-06-19T19:11:05;96349.66;;;25.98;47.74
77631;BME280;66798;47.370;8.552;2023-06-19T19:13:31;96348.88;;;25.94;48.08
77631;BME280;66798;47.370;8.552;2023-06-19T19:15:56;96350.00;;;25.89;49.13
77631;BME280;66798;47.370;8.552;2023-06-19T19:18:22;96349.09;;;25.78;48.15
77631;BME280;66798;47.370;8.552;2023-06-19T19:20:47;96350.19;;;25.70;48.84
77631;BME280;66798;47.370;8.552;2023-06-19T19:23:13;96353.59;;;25.67;48.88
77631;BME280;66798;47.370;8.552;2023-06-19T19:25:38;96356.22;;;25.56;50.09
77631;BME280;66798;47.370;8.552;2023-06-19T19:28:05;96345.41;;;25.52;49.25
77631;BME280;66798;47.370;8.552;2023-06-19T19:30:30;96348.34;;;25.36;50.30
77631;BME280;66798;47.370;8.552;2023-06-19T19:32:56;96343.31;;;25.35;49.71
77631;BME280;66798;47.370;8.552;2023-06-19T19:35:21;96337.50;;;25.29;50.25
77631;BME280;66798;47.370;8.552;2023-06-19T19:37:47;96345.09;;;25.24;49.88
77631;BME280;66798;47.370;8.552;2023-06-19T19:40:12;96348.13;;;25.18;50.00
77631;BME280;66798;47.370;8.552;2023-06-19T19:42:37;96349.28;;;25.17;50.22
77631;BME280;66798;47.370;8.552;2023-06-19T19:45:03;96348.06;;;25.15;50.74
77631;BME280;66798;47.370;8.552;2023-06-19T19:47:29;96360.34;;;25.12;50.74
77631;BME280;66798;47.370;8.552;2023-06-19T19:49:54;96366.84;;;25.08;50.90
77631;BME280;66798;47.370;8.552;2023-06-19T19:52:20;96369.44;;;25.00;51.92
77631;BME280;66798;47.370;8.552;2023-06-19T19:54:45;96367.56;;;25.05;51.19
77631;BME280;66798;47.370;8.552;2023-06-19T19:57:12;96367.88;;;24.99;51.47
77631;BME280;66798;47.370;8.552;2023-06-19T19:59:37;96368.56;;;24.93;52.66
77631;BME280;66798;47.370;8.552;2023-06-19T20:02:03;96373.56;;;24.91;51.86
77631;BME280;66798;47.370;8.552;2023-06-19T20:04:28;96368.88;;;24.88;52.00
77631;BME280;66798;47.370;8.552;2023-06-19T20:06:54;96372.00;;;24.90;51.93
77631;BME280;66798;47.370;8.552;2023-06-19T20:09:19;96370.38;;;24.85;52.25
77631;BME280;66798;47.370;8.552;2023-06-19T20:11:45;96374.59;;;24.83;52.61
77631;BME280;66798;47.370;8.552;2023-06-19T20:14:10;96377.19;;;24.75;52.08
77631;BME280;66798;47.370;8.552;2023-06-19T20:16:35;96367.94;;;24.73;51.78
77631;BME280;66798;47.370;8.552;2023-06-19T20:19:01;96370.53;;;24.66;51.68
77631;BME280;66798;47.370;8.552;2023-06-19T20:21:27;96381.19;;;24.58;53.71
77631;BME280;66798;47.370;8.552;2023-06-19T20:23:54;96378.44;;;24.55;53.66
77631;BME280;66798;47.370;8.552;2023-06-19T20:26:20;96377.31;;;24.56;53.49
77631;BME280;66798;47.370;8.552;2023-06-19T20:28:48;96384.13;;;24.50;53.10
77631;BME280;66798;47.370;8.552;2023-06-19T20:31:14;96377.63;;;24.51;52.72
77631;BME280;66798;47.370;8.552;2023-06-19T20:33:40;96380.25;;;24.47;52.52
77631;BME280;66798;47.370;8.552;2023-06-19T20:36:05;96387.19;;;24.48;53.46
77631;BME280;66798;47.370;8.552;2023-06-19T20:38:31;96394.84;;;24.46;54.68
77631;BME280;66798;47.370;8.552;2023-06-19T20:40:56;96387.09;;;24.45;53.41
77631;BME280;66798;47.370;8.552;2023-06-19T20:43:22;96384.41;;;24.45;53.04
77631;BME280;66798;47.370;8.552;2023-06-19T20:45:47;96367.81;;;24.39;52.53
77631;BME280;66798;47.370;8.552;2023-06-19T20:48:13;96364.38;;;24.38;52.97
77631;BME280;66798;47.370;8.552;2023-06-19T20:50:39;96361.63;;;24.35;54.71
77631;BME280;66798;47.370;8.552;2023-06-19T20:53:04;96366.56;;;24.33;53.59
77631;BME280;66798;47.370;8.552;2023-06-19T20:55:30;96365.38;;;24.30;53.97
77631;BME280;66798;47.370;8.552;2023-06-19T20:57:55;96374.13;;;24.24;55.47
77631;BME280;66798;47.370;8.552;2023-06-19T21:00:21;96364.06;;;24.17;54.89
77631;BME280;66798;47.370;8.552;2023-06-19T21:02:47;96368.69;;;24.20;53.08
77631;BME280;66798;47.370;8.552;2023-06-19T21:05:14;96371.31;;;24.16;54.03
77631;BME280;66798;47.370;8.552;2023-06-19T21:07:44;96359.38;;;24.14;53.69
77631;BME280;66798;47.370;8.552;2023-06-19T21:10:10;96357.75;;;24.09;54.54
77631;BME280;66798;47.370;8.552;2023-06-19T21:12:36;96363.44;;;24.04;53.68
77631;BME280;66798;47.370;8.552;2023-06-19T21:15:02;96353.84;;;24.03;53.51
77631;BME280;66798;47.370;8.552;2023-06-19T21:17:28;96354.94;;;23.99;53.34
77631;BME280;66798;47.370;8.552;2023-06-19T21:19:53;96352.53;;;23.93;54.46
